Terminal Aerodrome Forecast
Issued by NWS Missoula, MT

Current Version | Previous Version | Text Only | Print | Product List | Glossary On
Versions: 1 2 3 4 5 6 7 8 9 10 11 12 13 14 15 16 17
633
FTUS45 KMSO 211720
TAFMSO
TAF
KMSO 211720Z 2118/2218 VRB06KT P6SM VCSH BKN080
     FM212300 31011G18KT P6SM -SHRA VCTS BKN060CB
     FM220200 33008KT P6SM VCSH OVC060=

USA.gov is the U.S. government's official web portal to all federal, state and local government web resources and services.